sensor_id;sensor_type;location;lat;lon;timestamp;P1;durP1;ratioP1;P2;durP2;ratioP2
37633;SDS011;32048;49.902;22.508;2023-02-01T00:00:33;6.20;;;3.97;;
37633;SDS011;32048;49.902;22.508;2023-02-01T00:03:21;10.27;;;4.73;;
37633;SDS011;32048;49.902;22.508;2023-02-01T00:05:54;11.10;;;5.63;;
37633;SDS011;32048;49.902;22.508;2023-02-01T00:08:23;9.67;;;5.30;;
37633;SDS011;32048;49.902;22.508;2023-02-01T00:11:04;10.40;;;6.23;;
37633;SDS011;32048;49.902;22.508;2023-02-01T00:13:33;10.03;;;5.17;;
37633;SDS011;32048;49.902;22.508;2023-02-01T00:16:05;6.03;;;3.70;;
37633;SDS011;32048;49.902;22.508;2023-02-01T00:18:36;9.87;;;4.87;;
37633;SDS011;32048;49.902;22.508;2023-02-01T00:21:04;8.83;;;4.30;;
37633;SDS011;32048;49.902;22.508;2023-02-01T00:23:32;6.00;;;3.77;;
37633;SDS011;32048;49.902;22.508;2023-02-01T00:26:06;6.47;;;3.80;;
37633;SDS011;32048;49.902;22.508;2023-02-01T00:28:38;7.03;;;4.23;;
37633;SDS011;32048;49.902;22.508;2023-02-01T00:31:05;8.63;;;5.00;;
37633;SDS011;32048;49.902;22.508;2023-02-01T00:33:33;6.83;;;3.43;;
37633;SDS011;32048;49.902;22.508;2023-02-01T00:36:01;7.20;;;4.00;;
37633;SDS011;32048;49.902;22.508;2023-02-01T00:38:32;7.83;;;3.43;;
37633;SDS011;32048;49.902;22.508;2023-02-01T00:41:04;7.70;;;3.40;;
37633;SDS011;32048;49.902;22.508;2023-02-01T00:43:33;5.57;;;3.43;;
37633;SDS011;32048;49.902;22.508;2023-02-01T00:46:01;3.90;;;2.90;;
37633;SDS011;32048;49.902;22.508;2023-02-01T00:48:28;6.07;;;3.27;;
37633;SDS011;32048;49.902;22.508;2023-02-01T00:51:01;5.60;;;3.40;;
37633;SDS011;32048;49.902;22.508;2023-02-01T00:53:31;8.90;;;3.83;;
37633;SDS011;32048;49.902;22.508;2023-02-01T00:55:59;7.00;;;4.10;;
37633;SDS011;32048;49.902;22.508;2023-02-01T00:58:26;8.33;;;4.40;;
37633;SDS011;32048;49.902;22.508;2023-02-01T01:01:01;4.90;;;3.57;;
37633;SDS011;32048;49.902;22.508;2023-02-01T01:03:32;8.63;;;4.00;;
37633;SDS011;32048;49.902;22.508;2023-02-01T01:06:02;8.52;;;4.38;;
37633;SDS011;32048;49.902;22.508;2023-02-01T01:08:31;7.70;;;3.70;;
37633;SDS011;32048;49.902;22.508;2023-02-01T01:10:59;8.33;;;4.17;;
37633;SDS011;32048;49.902;22.508;2023-02-01T01:13:31;6.50;;;3.07;;
37633;SDS011;32048;49.902;22.508;2023-02-01T01:16:02;9.23;;;4.30;;
37633;SDS011;32048;49.902;22.508;2023-02-01T01:18:32;7.27;;;4.07;;
37633;SDS011;32048;49.902;22.508;2023-02-01T01:21:00;5.43;;;3.08;;
37633;SDS011;32048;49.902;22.508;2023-02-01T01:23:27;5.77;;;3.33;;
37633;SDS011;32048;49.902;22.508;2023-02-01T01:25:54;8.33;;;4.57;;
37633;SDS011;32048;49.902;22.508;2023-02-01T01:28:22;7.03;;;4.13;;
37633;SDS011;32048;49.902;22.508;2023-02-01T01:30:49;6.17;;;4.13;;
37633;SDS011;32048;49.902;22.508;2023-02-01T01:33:16;5.47;;;3.50;;
37633;SDS011;32048;49.902;22.508;2023-02-01T01:35:43;3.67;;;2.57;;
37633;SDS011;32048;49.902;22.508;2023-02-01T01:38:10;5.60;;;3.13;;
37633;SDS011;32048;49.902;22.508;2023-02-01T01:40:38;6.37;;;4.07;;
37633;SDS011;32048;49.902;22.508;2023-02-01T01:43:11;6.93;;;3.93;;
37633;SDS011;32048;49.902;22.508;2023-02-01T01:45:40;7.27;;;4.00;;
37633;SDS011;32048;49.902;22.508;2023-02-01T01:48:13;5.47;;;3.75;;
37633;SDS011;32048;49.902;22.508;2023-02-01T01:50:52;7.67;;;4.03;;
37633;SDS011;32048;49.902;22.508;2023-02-01T01:53:37;9.37;;;4.20;;
37633;SDS011;32048;49.902;22.508;2023-02-01T01:56:09;9.27;;;3.93;;
37633;SDS011;32048;49.902;22.508;2023-02-01T01:58:38;2.95;;;2.42;;
37633;SDS011;32048;49.902;22.508;2023-02-01T02:01:05;5.80;;;4.03;;
37633;SDS011;32048;49.902;22.508;2023-02-01T02:03:34;2.83;;;2.27;;
37633;SDS011;32048;49.902;22.508;2023-02-01T02:06:05;6.50;;;3.90;;
37633;SDS011;32048;49.902;22.508;2023-02-01T02:08:41;6.33;;;3.83;;
37633;SDS011;32048;49.902;22.508;2023-02-01T02:11:07;6.13;;;3.50;;
37633;SDS011;32048;49.902;22.508;2023-02-01T02:13:38;10.40;;;4.82;;
37633;SDS011;32048;49.902;22.508;2023-02-01T02:22:05;4.37;;;2.67;;
37633;SDS011;32048;49.902;22.508;2023-02-01T02:33:01;3.70;;;2.50;;
37633;SDS011;32048;49.902;22.508;2023-02-01T02:38:50;6.30;;;3.40;;
37633;SDS011;32048;49.902;22.508;2023-02-01T02:44:31;3.47;;;2.63;;
37633;SDS011;32048;49.902;22.508;2023-02-01T02:47:35;6.13;;;3.40;;
37633;SDS011;32048;49.902;22.508;2023-02-01T02:53:11;4.80;;;2.80;;
37633;SDS011;32048;49.902;22.508;2023-02-01T02:56:00;5.07;;;2.90;;
37633;SDS011;32048;49.902;22.508;2023-02-01T02:58:48;5.30;;;2.75;;
37633;SDS011;32048;49.902;22.508;2023-02-01T03:01:35;6.27;;;3.70;;
37633;SDS011;32048;49.902;22.508;2023-02-01T03:04:25;4.17;;;2.70;;
37633;SDS011;32048;49.902;22.508;2023-02-01T03:06:52;5.53;;;3.47;;
37633;SDS011;32048;49.902;22.508;2023-02-01T03:09:26;4.85;;;3.58;;
37633;SDS011;32048;49.902;22.508;2023-02-01T03:11:59;5.83;;;3.30;;
37633;SDS011;32048;49.902;22.508;2023-02-01T03:14:54;5.73;;;3.57;;
37633;SDS011;32048;49.902;22.508;2023-02-01T03:17:31;9.17;;;3.90;;
37633;SDS011;32048;49.902;22.508;2023-02-01T03:20:06;7.47;;;3.37;;
37633;SDS011;32048;49.902;22.508;2023-02-01T03:22:37;7.30;;;3.77;;
37633;SDS011;32048;49.902;22.508;2023-02-01T03:25:09;5.57;;;3.70;;
37633;SDS011;32048;49.902;22.508;2023-02-01T03:32:54;5.47;;;3.57;;
37633;SDS011;32048;49.902;22.508;2023-02-01T03:41:02;7.47;;;4.17;;
37633;SDS011;32048;49.902;22.508;2023-02-01T03:43:48;8.30;;;4.23;;
37633;SDS011;32048;49.902;22.508;2023-02-01T03:46:40;7.87;;;4.23;;
37633;SDS011;32048;49.902;22.508;2023-02-01T03:49:18;5.73;;;3.83;;
37633;SDS011;32048;49.902;22.508;2023-02-01T03:51:51;9.10;;;4.73;;
37633;SDS011;32048;49.902;22.508;2023-02-01T03:54:19;4.47;;;3.50;;
37633;SDS011;32048;49.902;22.508;2023-02-01T03:56:47;13.03;;;4.73;;
37633;SDS011;32048;49.902;22.508;2023-02-01T03:59:15;6.77;;;4.43;;
37633;SDS011;32048;49.902;22.508;2023-02-01T04:01:42;8.83;;;3.77;;
37633;SDS011;32048;49.902;22.508;2023-02-01T04:04:09;9.67;;;3.70;;
37633;SDS011;32048;49.902;22.508;2023-02-01T04:06:36;9.70;;;3.47;;
37633;SDS011;32048;49.902;22.508;2023-02-01T04:09:03;7.23;;;3.43;;
37633;SDS011;32048;49.902;22.508;2023-02-01T04:11:30;12.87;;;4.03;;
37633;SDS011;32048;49.902;22.508;2023-02-01T04:13:57;13.13;;;4.10;;
37633;SDS011;32048;49.902;22.508;2023-02-01T04:16:25;10.20;;;3.37;;
37633;SDS011;32048;49.902;22.508;2023-02-01T04:18:52;7.27;;;3.23;;
37633;SDS011;32048;49.902;22.508;2023-02-01T04:21:18;9.93;;;3.33;;
37633;SDS011;32048;49.902;22.508;2023-02-01T04:23:44;8.40;;;4.17;;
37633;SDS011;32048;49.902;22.508;2023-02-01T04:26:12;5.87;;;3.63;;
37633;SDS011;32048;49.902;22.508;2023-02-01T04:28:39;10.33;;;3.13;;
37633;SDS011;32048;49.902;22.508;2023-02-01T04:31:06;6.03;;;2.47;;
37633;SDS011;32048;49.902;22.508;2023-02-01T04:33:33;6.93;;;2.77;;
37633;SDS011;32048;49.902;22.508;2023-02-01T04:36:00;7.67;;;2.77;;
37633;SDS011;32048;49.902;22.508;2023-02-01T04:38:27;7.33;;;2.90;;
37633;SDS011;32048;49.902;22.508;2023-02-01T04:40:56;8.77;;;2.80;;
37633;SDS011;32048;49.902;22.508;2023-02-01T04:43:23;7.90;;;3.07;;
37633;SDS011;32048;49.902;22.508;2023-02-01T04:45:50;8.37;;;3.13;;
37633;SDS011;32048;49.902;22.508;2023-02-01T04:48:18;7.03;;;3.00;;
37633;SDS011;32048;49.902;22.508;2023-02-01T04:50:48;11.67;;;3.27;;
37633;SDS011;32048;49.902;22.508;2023-02-01T04:53:15;7.32;;;2.67;;
37633;SDS011;32048;49.902;22.508;2023-02-01T04:55:43;9.23;;;2.95;;
37633;SDS011;32048;49.902;22.508;2023-02-01T04:58:11;6.13;;;2.90;;
37633;SDS011;32048;49.902;22.508;2023-02-01T05:00:38;9.30;;;3.30;;
37633;SDS011;32048;49.902;22.508;2023-02-01T05:03:05;5.67;;;2.60;;
37633;SDS011;32048;49.902;22.508;2023-02-01T05:05:32;8.03;;;2.90;;
37633;SDS011;32048;49.902;22.508;2023-02-01T05:07:59;8.73;;;3.80;;
37633;SDS011;32048;49.902;22.508;2023-02-01T05:10:26;7.50;;;3.40;;
37633;SDS011;32048;49.902;22.508;2023-02-01T05:12:53;8.60;;;3.07;;
37633;SDS011;32048;49.902;22.508;2023-02-01T05:15:39;10.27;;;2.97;;
37633;SDS011;32048;49.902;22.508;2023-02-01T05:18:06;4.33;;;2.73;;
37633;SDS011;32048;49.902;22.508;2023-02-01T05:20:33;9.30;;;2.87;;
37633;SDS011;32048;49.902;22.508;2023-02-01T05:23:00;12.83;;;2.80;;
37633;SDS011;32048;49.902;22.508;2023-02-01T05:25:27;6.73;;;2.50;;
37633;SDS011;32048;49.902;22.508;2023-02-01T05:27:54;10.60;;;3.10;;
37633;SDS011;32048;49.902;22.508;2023-02-01T05:30:22;8.17;;;2.60;;
37633;SDS011;32048;49.902;22.508;2023-02-01T05:32:50;12.27;;;2.53;;
37633;SDS011;32048;49.902;22.508;2023-02-01T05:35:18;10.20;;;3.00;;
37633;SDS011;32048;49.902;22.508;2023-02-01T05:37:46;9.23;;;3.23;;
37633;SDS011;32048;49.902;22.508;2023-02-01T05:40:13;8.93;;;3.33;;
37633;SDS011;32048;49.902;22.508;2023-02-01T05:42:40;9.70;;;3.03;;
37633;SDS011;32048;49.902;22.508;2023-02-01T05:45:08;12.17;;;3.13;;
37633;SDS011;32048;49.902;22.508;2023-02-01T05:47:35;10.93;;;2.63;;
37633;SDS011;32048;49.902;22.508;2023-02-01T05:50:03;7.77;;;2.77;;
37633;SDS011;32048;49.902;22.508;2023-02-01T05:52:31;9.57;;;2.28;;
37633;SDS011;32048;49.902;22.508;2023-02-01T05:54:59;10.67;;;2.97;;
37633;SDS011;32048;49.902;22.508;2023-02-01T05:57:25;6.47;;;2.30;;
37633;SDS011;32048;49.902;22.508;2023-02-01T05:59:53;9.73;;;2.80;;
37633;SDS011;32048;49.902;22.508;2023-02-01T06:02:20;9.80;;;2.70;;
37633;SDS011;32048;49.902;22.508;2023-02-01T06:04:48;11.45;;;2.50;;
37633;SDS011;32048;49.902;22.508;2023-02-01T06:07:15;10.40;;;2.57;;
37633;SDS011;32048;49.902;22.508;2023-02-01T06:09:42;11.40;;;3.47;;
37633;SDS011;32048;49.902;22.508;2023-02-01T06:12:09;11.83;;;2.93;;
37633;SDS011;32048;49.902;22.508;2023-02-01T06:14:36;16.30;;;3.00;;
37633;SDS011;32048;49.902;22.508;2023-02-01T06:17:04;9.23;;;2.37;;
37633;SDS011;32048;49.902;22.508;2023-02-01T06:19:33;9.40;;;3.03;;
37633;SDS011;32048;49.902;22.508;2023-02-01T06:21:59;11.43;;;2.40;;
37633;SDS011;32048;49.902;22.508;2023-02-01T06:24:27;11.20;;;2.63;;
37633;SDS011;32048;49.902;22.508;2023-02-01T06:26:54;12.50;;;2.93;;
37633;SDS011;32048;49.902;22.508;2023-02-01T06:29:21;9.90;;;3.97;;
37633;SDS011;32048;49.902;22.508;2023-02-01T06:31:48;13.03;;;3.90;;
37633;SDS011;32048;49.902;22.508;2023-02-01T06:34:15;22.50;;;9.80;;
37633;SDS011;32048;49.902;22.508;2023-02-01T06:36:42;25.00;;;9.80;;
37633;SDS011;32048;49.902;22.508;2023-02-01T06:39:10;30.80;;;9.20;;
37633;SDS011;32048;49.902;22.508;2023-02-01T06:41:39;17.87;;;6.93;;
37633;SDS011;32048;49.902;22.508;2023-02-01T06:44:06;32.93;;;11.73;;
37633;SDS011;32048;49.902;22.508;2023-02-01T06:46:33;58.67;;;20.50;;
37633;SDS011;32048;49.902;22.508;2023-02-01T06:49:00;26.67;;;8.50;;
37633;SDS011;32048;49.902;22.508;2023-02-01T06:51:27;21.10;;;7.67;;
37633;SDS011;32048;49.902;22.508;2023-02-01T06:53:56;26.20;;;7.15;;
37633;SDS011;32048;49.902;22.508;2023-02-01T06:56:23;22.67;;;6.97;;
37633;SDS011;32048;49.902;22.508;2023-02-01T06:58:51;31.90;;;11.20;;
37633;SDS011;32048;49.902;22.508;2023-02-01T07:01:18;31.40;;;12.17;;
37633;SDS011;32048;49.902;22.508;2023-02-01T07:03:46;39.30;;;12.50;;
37633;SDS011;32048;49.902;22.508;2023-02-01T07:06:15;43.88;;;15.40;;
37633;SDS011;32048;49.902;22.508;2023-02-01T07:08:42;24.10;;;8.67;;
37633;SDS011;32048;49.902;22.508;2023-02-01T07:11:10;47.57;;;17.43;;
37633;SDS011;32048;49.902;22.508;2023-02-01T07:13:39;61.37;;;21.10;;
37633;SDS011;32048;49.902;22.508;2023-02-01T07:16:16;35.37;;;12.93;;
37633;SDS011;32048;49.902;22.508;2023-02-01T07:18:45;50.40;;;18.55;;
37633;SDS011;32048;49.902;22.508;2023-02-01T07:21:12;22.90;;;9.17;;
37633;SDS011;32048;49.902;22.508;2023-02-01T07:23:39;38.83;;;13.97;;
37633;SDS011;32048;49.902;22.508;2023-02-01T07:26:06;20.03;;;8.50;;
37633;SDS011;32048;49.902;22.508;2023-02-01T07:28:36;44.60;;;14.90;;
37633;SDS011;32048;49.902;22.508;2023-02-01T07:31:08;27.27;;;11.37;;
37633;SDS011;32048;49.902;22.508;2023-02-01T07:33:37;23.20;;;8.97;;
37633;SDS011;32048;49.902;22.508;2023-02-01T07:36:05;22.50;;;9.23;;
37633;SDS011;32048;49.902;22.508;2023-02-01T07:41:01;20.87;;;7.17;;
37633;SDS011;32048;49.902;22.508;2023-02-01T07:43:30;29.33;;;10.03;;
37633;SDS011;32048;49.902;22.508;2023-02-01T07:45:57;14.57;;;4.93;;
37633;SDS011;32048;49.902;22.508;2023-02-01T07:48:25;28.20;;;10.53;;
37633;SDS011;32048;49.902;22.508;2023-02-01T07:51:03;14.77;;;5.77;;
37633;SDS011;32048;49.902;22.508;2023-02-01T07:53:32;20.00;;;6.17;;
37633;SDS011;32048;49.902;22.508;2023-02-01T07:56:00;26.53;;;7.47;;
37633;SDS011;32048;49.902;22.508;2023-02-01T07:58:28;17.53;;;7.37;;
37633;SDS011;32048;49.902;22.508;2023-02-01T08:00:55;13.33;;;5.53;;
37633;SDS011;32048;49.902;22.508;2023-02-01T08:03:42;17.97;;;6.83;;
37633;SDS011;32048;49.902;22.508;2023-02-01T08:06:09;12.17;;;5.00;;
37633;SDS011;32048;49.902;22.508;2023-02-01T08:08:36;17.20;;;6.30;;
37633;SDS011;32048;49.902;22.508;2023-02-01T08:11:04;10.73;;;4.57;;
37633;SDS011;32048;49.902;22.508;2023-02-01T08:13:33;15.10;;;5.30;;
37633;SDS011;32048;49.902;22.508;2023-02-01T08:18:31;20.58;;;6.32;;
37633;SDS011;32048;49.902;22.508;2023-02-01T08:21:10;17.93;;;6.40;;
37633;SDS011;32048;49.902;22.508;2023-02-01T08:23:39;15.63;;;4.90;;
37633;SDS011;32048;49.902;22.508;2023-02-01T08:26:08;17.92;;;5.40;;
37633;SDS011;32048;49.902;22.508;2023-02-01T08:28:46;11.10;;;4.23;;
37633;SDS011;32048;49.902;22.508;2023-02-01T08:31:17;10.63;;;3.30;;
37633;SDS011;32048;49.902;22.508;2023-02-01T08:33:56;11.63;;;4.13;;
37633;SDS011;32048;49.902;22.508;2023-02-01T08:36:25;9.70;;;2.90;;
37633;SDS011;32048;49.902;22.508;2023-02-01T08:38:54;15.30;;;4.40;;
37633;SDS011;32048;49.902;22.508;2023-02-01T08:41:22;13.27;;;3.00;;
37633;SDS011;32048;49.902;22.508;2023-02-01T08:43:52;10.33;;;3.80;;
37633;SDS011;32048;49.902;22.508;2023-02-01T08:46:21;11.93;;;3.72;;
37633;SDS011;32048;49.902;22.508;2023-02-01T08:48:49;16.92;;;3.63;;
37633;SDS011;32048;49.902;22.508;2023-02-01T08:51:17;12.50;;;3.90;;
37633;SDS011;32048;49.902;22.508;2023-02-01T08:53:46;15.27;;;3.80;;
37633;SDS011;32048;49.902;22.508;2023-02-01T08:56:14;10.97;;;4.50;;
37633;SDS011;32048;49.902;22.508;2023-02-01T08:58:43;11.35;;;3.50;;
37633;SDS011;32048;49.902;22.508;2023-02-01T09:01:10;11.40;;;3.67;;
37633;SDS011;32048;49.902;22.508;2023-02-01T09:03:39;11.97;;;4.27;;
37633;SDS011;32048;49.902;22.508;2023-02-01T09:06:08;14.67;;;4.87;;
37633;SDS011;32048;49.902;22.508;2023-02-01T09:08:39;15.37;;;4.77;;
37633;SDS011;32048;49.902;22.508;2023-02-01T09:11:10;10.17;;;3.50;;
37633;SDS011;32048;49.902;22.508;2023-02-01T09:13:39;11.63;;;4.03;;
37633;SDS011;32048;49.902;22.508;2023-02-01T09:16:06;13.53;;;3.63;;
37633;SDS011;32048;49.902;22.508;2023-02-01T09:18:34;9.97;;;3.37;;
37633;SDS011;32048;49.902;22.508;2023-02-01T09:21:04;10.90;;;4.37;;
37633;SDS011;32048;49.902;22.508;2023-02-01T09:23:33;9.20;;;3.07;;
37633;SDS011;32048;49.902;22.508;2023-02-01T09:26:01;12.53;;;4.37;;
37633;SDS011;32048;49.902;22.508;2023-02-01T09:28:30;8.02;;;3.28;;
37633;SDS011;32048;49.902;22.508;2023-02-01T09:30:57;11.82;;;3.30;;
37633;SDS011;32048;49.902;22.508;2023-02-01T09:33:26;11.70;;;3.10;;
37633;SDS011;32048;49.902;22.508;2023-02-01T09:35:55;11.00;;;3.45;;
37633;SDS011;32048;49.902;22.508;2023-02-01T09:38:26;12.43;;;4.25;;
37633;SDS011;32048;49.902;22.508;2023-02-01T09:40:54;11.57;;;4.68;;
37633;SDS011;32048;49.902;22.508;2023-02-01T09:43:41;12.37;;;4.77;;
37633;SDS011;32048;49.902;22.508;2023-02-01T09:46:32;10.18;;;3.38;;
37633;SDS011;32048;49.902;22.508;2023-02-01T09:49:05;8.90;;;3.65;;
37633;SDS011;32048;49.902;22.508;2023-02-01T09:51:39;16.30;;;3.58;;
37633;SDS011;32048;49.902;22.508;2023-02-01T09:54:15;13.85;;;2.92;;
37633;SDS011;32048;49.902;22.508;2023-02-01T10:02:03;12.48;;;3.60;;
37633;SDS011;32048;49.902;22.508;2023-02-01T10:04:37;8.07;;;3.30;;
37633;SDS011;32048;49.902;22.508;2023-02-01T10:15:13;9.23;;;3.40;;
37633;SDS011;32048;49.902;22.508;2023-02-01T10:23:32;11.38;;;3.53;;
37633;SDS011;32048;49.902;22.508;2023-02-01T10:28:53;11.03;;;3.63;;
37633;SDS011;32048;49.902;22.508;2023-02-01T10:31:28;15.50;;;5.60;;
37633;SDS011;32048;49.902;22.508;2023-02-01T10:33:59;13.67;;;4.50;;
37633;SDS011;32048;49.902;22.508;2023-02-01T10:36:29;18.67;;;4.03;;
37633;SDS011;32048;49.902;22.508;2023-02-01T10:38:59;12.45;;;3.42;;
37633;SDS011;32048;49.902;22.508;2023-02-01T10:41:30;16.20;;;4.23;;
37633;SDS011;32048;49.902;22.508;2023-02-01T10:43:59;11.50;;;3.90;;
37633;SDS011;32048;49.902;22.508;2023-02-01T10:46:31;12.30;;;4.00;;
37633;SDS011;32048;49.902;22.508;2023-02-01T10:49:00;9.52;;;3.53;;
37633;SDS011;32048;49.902;22.508;2023-02-01T10:54:04;11.18;;;4.15;;
37633;SDS011;32048;49.902;22.508;2023-02-01T10:56:41;11.25;;;3.70;;
37633;SDS011;32048;49.902;22.508;2023-02-01T10:59:19;16.63;;;4.28;;
37633;SDS011;32048;49.902;22.508;2023-02-01T11:01:51;15.43;;;3.67;;
37633;SDS011;32048;49.902;22.508;2023-02-01T11:04:26;12.32;;;3.38;;
37633;SDS011;32048;49.902;22.508;2023-02-01T11:07:06;10.10;;;4.32;;
37633;SDS011;32048;49.902;22.508;2023-02-01T11:09:35;13.30;;;3.55;;
37633;SDS011;32048;49.902;22.508;2023-02-01T11:12:23;13.13;;;3.22;;
37633;SDS011;32048;49.902;22.508;2023-02-01T11:15:02;9.32;;;3.35;;
37633;SDS011;32048;49.902;22.508;2023-02-01T11:17:33;9.45;;;3.38;;
37633;SDS011;32048;49.902;22.508;2023-02-01T11:20:04;8.88;;;4.00;;
37633;SDS011;32048;49.902;22.508;2023-02-01T11:22:39;12.27;;;3.78;;
37633;SDS011;32048;49.902;22.508;2023-02-01T11:25:22;13.85;;;4.18;;
37633;SDS011;32048;49.902;22.508;2023-02-01T11:27:51;12.05;;;3.63;;
37633;SDS011;32048;49.902;22.508;2023-02-01T11:30:38;9.80;;;3.08;;
37633;SDS011;32048;49.902;22.508;2023-02-01T11:33:09;10.20;;;3.35;;
37633;SDS011;32048;49.902;22.508;2023-02-01T11:35:41;9.82;;;2.92;;
37633;SDS011;32048;49.902;22.508;2023-02-01T11:38:11;13.93;;;3.95;;
37633;SDS011;32048;49.902;22.508;2023-02-01T11:40:46;10.80;;;3.75;;
37633;SDS011;32048;49.902;22.508;2023-02-01T11:43:22;7.93;;;2.47;;
37633;SDS011;32048;49.902;22.508;2023-02-01T11:45:57;9.57;;;3.20;;
37633;SDS011;32048;49.902;22.508;2023-02-01T11:48:27;9.82;;;3.45;;
37633;SDS011;32048;49.902;22.508;2023-02-01T12:04:18;12.60;;;3.47;;
37633;SDS011;32048;49.902;22.508;2023-02-01T12:15:08;9.32;;;3.17;;
37633;SDS011;32048;49.902;22.508;2023-02-01T12:36:52;10.10;;;3.60;;
37633;SDS011;32048;49.902;22.508;2023-02-01T12:39:47;12.88;;;3.55;;
37633;SDS011;32048;49.902;22.508;2023-02-01T12:42:36;9.67;;;3.53;;
37633;SDS011;32048;49.902;22.508;2023-02-01T12:47:45;9.50;;;3.60;;
37633;SDS011;32048;49.902;22.508;2023-02-01T12:50:24;11.77;;;3.97;;
37633;SDS011;32048;49.902;22.508;2023-02-01T12:52:58;11.80;;;4.00;;
37633;SDS011;32048;49.902;22.508;2023-02-01T12:55:36;15.07;;;4.27;;
37633;SDS011;32048;49.902;22.508;2023-02-01T12:58:13;11.50;;;4.70;;
37633;SDS011;32048;49.902;22.508;2023-02-01T13:00:52;9.05;;;3.55;;
37633;SDS011;32048;49.902;22.508;2023-02-01T13:03:39;11.43;;;4.03;;
37633;SDS011;32048;49.902;22.508;2023-02-01T13:09:27;16.93;;;5.17;;
37633;SDS011;32048;49.902;22.508;2023-02-01T13:12:22;11.57;;;4.40;;
37633;SDS011;32048;49.902;22.508;2023-02-01T13:15:13;14.77;;;5.23;;
37633;SDS011;32048;49.902;22.508;2023-02-01T13:17:58;16.93;;;5.20;;
37633;SDS011;32048;49.902;22.508;2023-02-01T13:20:32;14.03;;;4.50;;
37633;SDS011;32048;49.902;22.508;2023-02-01T13:23:05;14.23;;;5.03;;
37633;SDS011;32048;49.902;22.508;2023-02-01T13:25:46;13.90;;;4.63;;
37633;SDS011;32048;49.902;22.508;2023-02-01T13:28:18;7.20;;;3.40;;
37633;SDS011;32048;49.902;22.508;2023-02-01T13:42:04;19.37;;;5.83;;
37633;SDS011;32048;49.902;22.508;2023-02-01T13:47:13;95.10;;;83.87;;
37633;SDS011;32048;49.902;22.508;2023-02-01T13:50:04;22.33;;;7.93;;
37633;SDS011;32048;49.902;22.508;2023-02-01T13:52:58;18.53;;;7.97;;
37633;SDS011;32048;49.902;22.508;2023-02-01T13:55:30;19.30;;;9.63;;
37633;SDS011;32048;49.902;22.508;2023-02-01T14:03:55;15.53;;;5.33;;
37633;SDS011;32048;49.902;22.508;2023-02-01T14:09:11;17.90;;;6.50;;
37633;SDS011;32048;49.902;22.508;2023-02-01T14:11:47;49.93;;;22.90;;
37633;SDS011;32048;49.902;22.508;2023-02-01T14:19:34;177.33;;;82.50;;
37633;SDS011;32048;49.902;22.508;2023-02-01T14:24:53;212.87;;;118.73;;
37633;SDS011;32048;49.902;22.508;2023-02-01T14:27:26;567.97;;;302.10;;
37633;SDS011;32048;49.902;22.508;2023-02-01T14:29:57;247.43;;;131.40;;
37633;SDS011;32048;49.902;22.508;2023-02-01T14:32:31;296.67;;;165.17;;
37633;SDS011;32048;49.902;22.508;2023-02-01T14:35:05;94.93;;;56.43;;
37633;SDS011;32048;49.902;22.508;2023-02-01T14:37:35;150.23;;;101.13;;
37633;SDS011;32048;49.902;22.508;2023-02-01T14:40:15;55.03;;;37.63;;
37633;SDS011;32048;49.902;22.508;2023-02-01T14:42:52;43.63;;;29.27;;
37633;SDS011;32048;49.902;22.508;2023-02-01T15:01:29;26.33;;;11.50;;
37633;SDS011;32048;49.902;22.508;2023-02-01T15:04:11;16.57;;;7.73;;
37633;SDS011;32048;49.902;22.508;2023-02-01T15:12:03;26.40;;;14.70;;
37633;SDS011;32048;49.902;22.508;2023-02-01T15:17:39;21.52;;;12.27;;
37633;SDS011;32048;49.902;22.508;2023-02-01T15:23:05;33.17;;;21.43;;
37633;SDS011;32048;49.902;22.508;2023-02-01T15:25:35;28.70;;;15.90;;
37633;SDS011;32048;49.902;22.508;2023-02-01T15:28:08;52.27;;;32.87;;
37633;SDS011;32048;49.902;22.508;2023-02-01T15:30:40;31.13;;;12.30;;
37633;SDS011;32048;49.902;22.508;2023-02-01T15:33:26;28.93;;;11.90;;
37633;SDS011;32048;49.902;22.508;2023-02-01T15:35:55;30.83;;;13.15;;
37633;SDS011;32048;49.902;22.508;2023-02-01T15:38:36;33.07;;;14.20;;
37633;SDS011;32048;49.902;22.508;2023-02-01T15:41:16;31.17;;;12.40;;
37633;SDS011;32048;49.902;22.508;2023-02-01T15:46:32;15.97;;;6.97;;
37633;SDS011;32048;49.902;22.508;2023-02-01T15:49:03;19.10;;;11.83;;
37633;SDS011;32048;49.902;22.508;2023-02-01T15:51:31;33.55;;;12.65;;
37633;SDS011;32048;49.902;22.508;2023-02-01T15:54:01;38.87;;;15.93;;
37633;SDS011;32048;49.902;22.508;2023-02-01T15:56:34;44.07;;;16.50;;
37633;SDS011;32048;49.902;22.508;2023-02-01T15:59:05;44.90;;;16.33;;
37633;SDS011;32048;49.902;22.508;2023-02-01T16:01:41;26.17;;;11.87;;
37633;SDS011;32048;49.902;22.508;2023-02-01T16:04:22;39.37;;;19.17;;
37633;SDS011;32048;49.902;22.508;2023-02-01T16:06:54;35.10;;;17.43;;
37633;SDS011;32048;49.902;22.508;2023-02-01T16:09:25;44.20;;;22.73;;
37633;SDS011;32048;49.902;22.508;2023-02-01T16:12:02;37.05;;;19.17;;
37633;SDS011;32048;49.902;22.508;2023-02-01T16:14:30;39.70;;;20.33;;
37633;SDS011;32048;49.902;22.508;2023-02-01T16:16:58;29.33;;;13.43;;
37633;SDS011;32048;49.902;22.508;2023-02-01T16:19:26;33.87;;;14.70;;
37633;SDS011;32048;49.902;22.508;2023-02-01T16:21:55;27.48;;;8.88;;
37633;SDS011;32048;49.902;22.508;2023-02-01T16:24:23;30.53;;;12.97;;
37633;SDS011;32048;49.902;22.508;2023-02-01T16:26:52;24.57;;;10.97;;
37633;SDS011;32048;49.902;22.508;2023-02-01T16:29:19;30.80;;;12.50;;
37633;SDS011;32048;49.902;22.508;2023-02-01T16:31:48;31.83;;;13.80;;
37633;SDS011;32048;49.902;22.508;2023-02-01T16:34:16;29.00;;;14.20;;
37633;SDS011;32048;49.902;22.508;2023-02-01T16:36:43;37.37;;;13.57;;
37633;SDS011;32048;49.902;22.508;2023-02-01T16:39:21;23.93;;;11.27;;
37633;SDS011;32048;49.902;22.508;2023-02-01T16:41:48;28.53;;;13.60;;
37633;SDS011;32048;49.902;22.508;2023-02-01T16:44:16;30.40;;;14.00;;
37633;SDS011;32048;49.902;22.508;2023-02-01T16:46:44;23.77;;;11.30;;
37633;SDS011;32048;49.902;22.508;2023-02-01T16:49:22;39.67;;;16.33;;
37633;SDS011;32048;49.902;22.508;2023-02-01T16:51:51;23.13;;;10.67;;
37633;SDS011;32048;49.902;22.508;2023-02-01T16:54:22;26.53;;;11.33;;
37633;SDS011;32048;49.902;22.508;2023-02-01T16:56:50;38.83;;;16.73;;
37633;SDS011;32048;49.902;22.508;2023-02-01T16:59:17;31.70;;;13.70;;
37633;SDS011;32048;49.902;22.508;2023-02-01T17:01:44;39.07;;;16.90;;
37633;SDS011;32048;49.902;22.508;2023-02-01T17:04:11;40.17;;;18.67;;
37633;SDS011;32048;49.902;22.508;2023-02-01T17:06:38;50.30;;;23.60;;
37633;SDS011;32048;49.902;22.508;2023-02-01T17:11:36;43.75;;;19.45;;
37633;SDS011;32048;49.902;22.508;2023-02-01T17:14:17;40.80;;;16.42;;
37633;SDS011;32048;49.902;22.508;2023-02-01T17:16:46;47.30;;;23.07;;
37633;SDS011;32048;49.902;22.508;2023-02-01T17:19:16;48.47;;;22.40;;
37633;SDS011;32048;49.902;22.508;2023-02-01T17:21:47;35.87;;;17.00;;
37633;SDS011;32048;49.902;22.508;2023-02-01T17:24:18;45.23;;;20.93;;
37633;SDS011;32048;49.902;22.508;2023-02-01T17:26:49;42.33;;;23.00;;
37633;SDS011;32048;49.902;22.508;2023-02-01T17:29:18;73.38;;;32.60;;
37633;SDS011;32048;49.902;22.508;2023-02-01T17:31:48;71.90;;;32.83;;
37633;SDS011;32048;49.902;22.508;2023-02-01T17:34:18;67.60;;;29.23;;
37633;SDS011;32048;49.902;22.508;2023-02-01T17:36:45;50.87;;;23.00;;
37633;SDS011;32048;49.902;22.508;2023-02-01T17:39:14;47.20;;;21.02;;
37633;SDS011;32048;49.902;22.508;2023-02-01T17:42:02;31.97;;;15.53;;